Time;durP1;ratioP1;P1;durP2;ratioP2;P2;SDS_P1;SDS_P2;PMS_P1;PMS_P2;Temp;Humidity;BMP_temperature;BMP_pressure;BME280_temperature;BME280_humidity;BME280_pressure;Samples;Min_cycle;Max_cycle;Signal;HPM_P1;HPM_P2
2021/11/16 00:02:21;;;;;;;28.35;16.52;;;;;;;6.80;90.92;97174.16;5104986;28;20699;-65
2021/11/16 00:04:50;;;;;;;25.10;16.10;;;;;;;6.73;91.05;97175.13;5114472;28;20389;-66
2021/11/16 00:07:15;;;;;;;26.57;15.80;;;;;;;6.71;91.28;97172.72;5109051;28;20482;-65
2021/11/16 00:09:40;;;;;;;24.70;15.30;;;;;;;6.74;90.47;97174.13;5094885;28;20394;-65
2021/11/16 00:12:06;;;;;;;25.53;15.63;;;;;;;6.67;90.86;97181.91;5096229;28;20473;-65
2021/11/16 00:14:32;;;;;;;27.07;16.50;;;;;;;6.67;90.43;97180.09;5093723;28;20408;-66
2021/11/16 00:16:58;;;;;;;24.57;15.30;;;;;;;6.71;90.70;97175.31;5114562;28;20748;-65
2021/11/16 00:19:24;;;;;;;24.58;15.82;;;;;;;6.70;91.02;97184.13;5096685;28;20403;-66
2021/11/16 00:21:50;;;;;;;24.75;15.35;;;;;;;6.68;90.53;97184.34;5113298;28;20787;-66
2021/11/16 00:24:19;;;;;;;27.60;16.15;;;;;;;6.81;90.35;97177.56;5104741;28;20394;-65
2021/11/16 00:26:46;;;;;;;29.80;16.88;;;;;;;6.91;89.71;97184.03;5112709;28;20449;-65
2021/11/16 00:29:12;;;;;;;27.48;16.65;;;;;;;6.83;90.31;97180.78;5093079;28;20398;-65
2021/11/16 00:31:37;;;;;;;28.50;16.75;;;;;;;6.97;89.54;97185.84;5094684;28;20799;-65
2021/11/16 00:34:03;;;;;;;27.00;16.80;;;;;;;7.03;89.38;97179.88;5093770;28;20452;-65
2021/11/16 00:36:31;;;;;;;28.38;17.40;;;;;;;6.91;90.00;97183.25;5093080;28;20390;-65
2021/11/16 00:38:57;;;;;;;27.75;16.52;;;;;;;6.82;91.09;97189.59;5095761;28;20413;-66
2021/11/16 00:41:22;;;;;;;25.95;16.08;;;;;;;6.84;91.18;97190.22;5114188;28;20424;-66
2021/11/16 00:43:49;;;;;;;29.43;16.37;;;;;;;6.60;92.34;97192.28;5104829;28;20920;-65
2021/11/16 00:46:14;;;;;;;25.27;15.93;;;;;;;6.64;92.21;97190.09;5092819;28;20878;-65
2021/11/16 00:48:40;;;;;;;29.17;17.23;;;;;;;6.71;92.08;97190.13;5093707;28;20428;-65
2021/11/16 00:51:07;;;;;;;25.88;16.75;;;;;;;6.78;91.59;97190.97;5094147;28;20793;-65
2021/11/16 00:53:36;;;;;;;26.73;16.15;;;;;;;6.74;91.56;97192.38;5093927;28;20394;-66
2021/11/16 00:56:03;;;;;;;26.52;15.90;;;;;;;6.78;91.59;97189.19;5101715;28;20400;-65
2021/11/16 00:58:29;;;;;;;26.42;16.52;;;;;;;6.72;92.07;97186.53;5098401;28;20409;-66
2021/11/16 01:00:55;;;;;;;27.77;16.60;;;;;;;6.73;91.89;97191.56;5111216;28;20395;-65
2021/11/16 01:03:22;;;;;;;26.70;16.15;;;;;;;6.80;90.99;97189.00;5113977;28;20479;-65
2021/11/16 01:05:48;;;;;;;25.80;16.58;;;;;;;6.94;90.44;97199.28;5105235;28;20878;-66
2021/11/16 01:08:14;;;;;;;28.48;16.90;;;;;;;6.71;92.13;97198.75;5091790;28;20487;-66
2021/11/16 01:10:42;;;;;;;26.70;16.52;;;;;;;6.74;91.48;97200.19;5108608;28;20389;-66
2021/11/16 01:13:08;;;;;;;26.50;16.98;;;;;;;6.93;91.24;97199.47;5094821;28;20401;-65
2021/11/16 01:15:36;;;;;;;27.40;16.88;;;;;;;6.71;92.05;97197.94;5084876;28;20398;-66
2021/11/16 01:18:02;;;;;;;27.52;16.70;;;;;;;6.87;91.49;97205.44;5093301;28;20406;-65
2021/11/16 01:20:28;;;;;;;27.15;16.60;;;;;;;6.80;91.34;97200.19;5109483;28;20772;-65
2021/11/16 01:22:57;;;;;;;24.63;15.73;;;;;;;6.77;91.83;97195.38;5111125;28;20425;-66
2021/11/16 01:25:26;;;;;;;24.43;15.83;;;;;;;6.82;91.40;97197.41;5085758;28;20406;-65
2021/11/16 01:27:54;;;;;;;25.10;15.63;;;;;;;6.83;90.59;97197.22;5108059;28;20510;-65
2021/11/16 01:30:22;;;;;;;23.23;15.30;;;;;;;6.48;92.94;97195.59;5112540;28;20408;-65
2021/11/16 01:32:52;;;;;;;27.13;16.02;;;;;;;6.57;93.05;97203.09;5085905;28;20410;-66
2021/11/16 01:35:18;;;;;;;25.42;15.25;;;;;;;6.70;91.64;97194.53;5094217;28;20439;-65
2021/11/16 01:37:44;;;;;;;26.60;15.98;;;;;;;6.76;91.02;97192.97;5093189;28;20793;-65
2021/11/16 01:40:18;;;;;;;23.45;15.15;;;;;;;6.79;91.27;97198.63;5094097;28;20476;-65
2021/11/16 01:42:47;;;;;;;21.17;14.35;;;;;;;6.74;91.40;97192.38;5106990;28;20382;-66
2021/11/16 01:45:14;;;;;;;22.65;14.55;;;;;;;6.84;90.48;97187.59;5082048;28;20394;-64
2021/11/16 01:47:39;;;;;;;23.43;14.50;;;;;;;6.67;90.81;97185.31;5094267;28;20390;-65
2021/11/16 01:50:07;;;;;;;21.67;14.27;;;;;;;6.66;91.23;97191.53;5110821;28;20398;-65
2021/11/16 01:52:32;;;;;;;22.40;13.90;;;;;;;6.55;91.63;97183.44;5098859;28;20410;-65
2021/11/16 01:54:58;;;;;;;22.23;14.23;;;;;;;6.62;91.07;97186.88;5092865;28;20385;-65
2021/11/16 01:57:24;;;;;;;24.13;14.27;;;;;;;6.69;90.91;97190.31;5094459;28;20468;-65
2021/11/16 01:59:49;;;;;;;21.35;14.25;;;;;;;6.77;90.63;97190.16;5112087;28;20756;-65
2021/11/16 02:02:15;;;;;;;21.77;13.85;;;;;;;6.72;90.85;97192.56;5112177;28;20408;-65
2021/11/16 02:04:41;;;;;;;23.70;14.90;;;;;;;6.73;90.87;97183.75;5103803;28;20410;-67
2021/11/16 02:07:07;;;;;;;23.60;14.50;;;;;;;6.77;90.44;97190.16;5108934;28;20381;-65
2021/11/16 02:09:34;;;;;;;23.38;14.68;;;;;;;6.76;91.34;97179.94;5094954;28;20394;-65
2021/11/16 02:12:00;;;;;;;23.98;14.80;;;;;;;6.74;91.14;97182.75;5112341;28;20415;-64
2021/11/16 02:14:26;;;;;;;25.48;14.93;;;;;;;6.45;92.24;97173.38;5079149;28;20882;-66
2021/11/16 02:16:51;;;;;;;23.20;14.48;;;;;;;6.60;91.66;97175.84;5090466;28;20755;-65
2021/11/16 02:19:19;;;;;;;24.93;15.23;;;;;;;6.53;92.11;97181.00;5092430;28;20408;-66
2021/11/16 02:21:46;;;;;;;24.63;15.15;;;;;;;6.53;92.37;97172.41;5095189;28;20386;-65
2021/11/16 02:24:11;;;;;;;22.95;15.27;;;;;;;6.63;92.28;97171.06;5062397;28;20393;-65
2021/11/16 02:26:37;;;;;;;24.30;15.80;;;;;;;6.59;91.98;97175.03;5091648;28;20887;-66
2021/11/16 02:29:04;;;;;;;25.48;15.40;;;;;;;6.62;92.02;97166.88;5093329;28;20397;-66
2021/11/16 02:31:31;;;;;;;23.67;15.45;;;;;;;6.46;92.13;97166.38;5091637;28;20889;-66
2021/11/16 02:33:57;;;;;;;28.30;16.63;;;;;;;6.68;91.57;97167.91;5093542;28;20399;-66
2021/11/16 02:36:27;;;;;;;27.35;16.13;;;;;;;6.61;92.39;97162.66;5092327;28;20398;-65
2021/11/16 02:38:53;;;;;;;25.92;15.88;;;;;;;6.53;92.63;97160.19;5093205;28;20433;-66
2021/11/16 02:41:19;;;;;;;26.85;16.23;;;;;;;6.54;92.62;97158.38;5111956;28;20915;-65
2021/11/16 02:43:44;;;;;;;25.40;15.52;;;;;;;6.53;92.47;97161.97;5111673;28;20490;-65
2021/11/16 02:46:10;;;;;;;22.55;15.00;;;;;;;6.61;92.37;97154.84;5110228;28;20848;-66
2021/11/16 02:48:36;;;;;;;25.15;15.50;;;;;;;6.64;91.94;97159.63;5111598;28;20394;-68
2021/11/16 02:51:07;;;;;;;24.30;14.75;;;;;;;6.56;92.44;97161.63;5095967;28;20392;-65
2021/11/16 02:53:34;;;;;;;25.93;16.30;;;;;;;6.52;92.59;97155.97;5110494;28;20449;-65
2021/11/16 02:56:00;;;;;;;24.85;15.50;;;;;;;6.20;93.30;97148.75;5101493;28;20420;-65
2021/11/16 02:58:25;;;;;;;26.80;15.83;;;;;;;6.49;92.63;97147.75;5091935;28;20496;-66
2021/11/16 03:00:58;;;;;;;24.73;16.13;;;;;;;6.82;90.65;97153.13;5096841;28;20384;-67
2021/11/16 03:03:24;;;;;;;23.63;14.52;;;;;;;6.64;90.84;97154.44;5110681;28;20402;-66
2021/11/16 03:05:49;;;;;;;21.55;14.40;;;;;;;6.51;91.59;97149.16;5111893;28;20868;-65
2021/11/16 03:08:23;;;;;;;24.07;15.50;;;;;;;6.50;92.02;97152.78;5094408;28;20483;-65
2021/11/16 03:10:51;;;;;;;22.40;14.57;;;;;;;6.61;91.66;97159.22;5096190;28;20396;-66
2021/11/16 03:13:17;;;;;;;22.52;14.20;;;;;;;6.50;92.91;97149.34;5111161;28;20388;-66
2021/11/16 03:15:43;;;;;;;23.35;14.82;;;;;;;6.55;92.39;97145.19;5111661;28;20384;-66
2021/11/16 03:18:09;;;;;;;24.63;15.30;;;;;;;6.60;92.48;97145.41;5111283;28;20411;-66
2021/11/16 03:20:35;;;;;;;25.70;15.30;;;;;;;6.71;91.38;97143.25;5103360;28;20402;-66
2021/11/16 03:23:10;;;;;;;25.80;16.07;;;;;;;6.68;91.24;97142.66;5096295;28;20472;-65
2021/11/16 03:25:41;;;;;;;25.75;16.35;;;;;;;6.52;92.01;97148.16;5095254;28;20865;-66
2021/11/16 03:28:09;;;;;;;25.02;16.48;;;;;;;6.63;91.63;97146.84;5098549;28;20408;-67
2021/11/16 03:30:36;;;;;;;23.77;14.75;;;;;;;6.43;93.18;97140.69;5074368;28;20394;-66
2021/11/16 03:33:04;;;;;;;26.25;15.63;;;;;;;6.36;93.56;97148.47;5089155;28;20408;-69
2021/11/16 03:35:31;;;;;;;27.17;15.90;;;;;;;6.51;93.17;97133.56;5085843;28;20436;-66
2021/11/16 03:37:58;;;;;;;24.00;15.33;;;;;;;6.58;93.32;97138.78;5085268;28;20424;-65
2021/11/16 03:40:28;;;;;;;25.17;15.70;;;;;;;6.46;93.27;97145.53;5074508;28;20525;-65
2021/11/16 03:42:53;;;;;;;25.48;15.73;;;;;;;6.65;92.20;97139.63;5089236;28;20473;-65
2021/11/16 03:45:23;;;;;;;26.80;16.15;;;;;;;6.61;92.66;97135.78;5083542;28;20479;-66
2021/11/16 03:47:49;;;;;;;27.83;15.70;;;;;;;6.47;93.26;97139.31;5110653;28;20400;-66
2021/11/16 03:50:20;;;;;;;26.08;15.88;;;;;;;6.68;92.78;97140.06;5110050;28;20388;-65
2021/11/16 03:52:49;;;;;;;26.55;15.82;;;;;;;6.52;93.97;97142.16;5090392;28;20397;-66
2021/11/16 03:55:15;;;;;;;29.15;16.38;;;;;;;6.51;95.02;97143.97;5089548;28;20426;-65
2021/11/16 03:57:41;;;;;;;27.20;16.42;;;;;;;6.27;96.14;97141.81;5107785;28;20483;-66
2021/11/16 04:00:17;;;;;;;27.98;16.55;;;;;;;6.42;95.68;97139.88;5107722;28;20391;-67
2021/11/16 04:02:43;;;;;;;26.70;16.48;;;;;;;6.38;96.02;97140.47;5091317;28;20393;-66
2021/11/16 04:05:10;;;;;;;27.80;16.70;;;;;;;6.32;95.43;97147.25;5101825;28;20447;-65
2021/11/16 04:07:35;;;;;;;26.25;16.55;;;;;;;6.45;95.71;97142.13;5096421;28;20389;-67
2021/11/16 04:10:04;;;;;;;26.42;16.55;;;;;;;6.54;94.32;97140.97;5093633;28;20874;-66
2021/11/16 04:12:29;;;;;;;26.70;16.90;;;;;;;6.45;94.84;97136.91;5094770;28;20386;-66
2021/11/16 04:14:54;;;;;;;24.83;15.93;;;;;;;6.53;94.76;97130.72;5093305;28;20409;-66
2021/11/16 04:17:20;;;;;;;23.37;15.33;;;;;;;6.46;95.26;97130.72;5115152;28;20377;-65
2021/11/16 04:19:45;;;;;;;27.83;16.13;;;;;;;6.37;94.58;97131.84;5096129;28;20423;-66
2021/11/16 04:22:11;;;;;;;25.70;15.50;;;;;;;6.31;95.41;97135.22;5103813;28;20405;-64
2021/11/16 04:24:37;;;;;;;26.17;15.50;;;;;;;6.43;95.33;97128.47;5094563;28;20382;-64
2021/11/16 04:27:03;;;;;;;27.47;16.40;;;;;;;6.42;94.59;97126.88;5103441;28;20473;-65
2021/11/16 04:29:28;;;;;;;26.87;16.70;;;;;;;6.24;95.37;97127.34;5093100;28;20548;-64
2021/11/16 04:31:56;;;;;;;25.55;16.17;;;;;;;6.24;95.83;97121.38;5094461;28;20775;-64
2021/11/16 04:34:22;;;;;;;25.67;16.03;;;;;;;6.11;96.46;97116.88;5093001;28;20398;-64
2021/11/16 04:36:48;;;;;;;28.80;16.52;;;;;;;6.25;95.24;97117.75;5096434;28;20388;-64
2021/11/16 04:39:14;;;;;;;27.63;16.75;;;;;;;6.19;95.28;97116.72;5114155;28;20861;-64
2021/11/16 04:41:40;;;;;;;27.40;16.80;;;;;;;6.32;94.46;97118.59;5113534;28;20400;-64
2021/11/16 04:44:07;;;;;;;24.50;15.73;;;;;;;6.42;93.90;97115.66;5113807;28;20398;-64
2021/11/16 04:46:32;;;;;;;25.35;15.80;;;;;;;6.04;95.01;97116.03;5098663;28;20414;-64
2021/11/16 04:52:07;;;;;;;25.73;16.17;;;;;;;6.08;96.57;97121.66;5074216;28;20464;-65
2021/11/16 05:02:39;;;;;;;27.80;16.83;;;;;;;6.20;96.30;97135.75;5109459;28;20438;-64
2021/11/16 05:05:13;;;;;;;27.60;16.73;;;;;;;6.28;95.38;97133.00;5102867;28;20416;-64
2021/11/16 05:07:58;;;;;;;26.85;16.20;;;;;;;6.08;96.55;97127.66;5113851;28;20851;-64
2021/11/16 05:10:24;;;;;;;27.15;16.17;;;;;;;6.22;96.43;97136.38;5112918;28;20841;-64
2021/11/16 05:12:50;;;;;;;26.17;15.90;;;;;;;6.17;96.55;97134.34;5093147;28;20553;-65
2021/11/16 05:15:18;;;;;;;26.67;16.33;;;;;;;6.05;97.42;97130.66;5112855;28;20753;-64
2021/11/16 05:17:47;;;;;;;28.98;15.93;;;;;;;6.09;96.76;97131.88;5095093;28;20418;-64
2021/11/16 05:20:13;;;;;;;27.20;16.15;;;;;;;6.02;98.55;97130.22;5091138;28;20402;-64
2021/11/16 05:22:41;;;;;;;28.20;17.13;;;;;;;6.28;96.68;97135.59;5100848;28;20400;-64
2021/11/16 05:25:08;;;;;;;27.52;17.08;;;;;;;6.07;97.12;97130.47;5094476;28;20443;-65
2021/11/16 05:27:33;;;;;;;27.20;16.38;;;;;;;6.17;97.57;97136.13;5108916;28;20845;-65
2021/11/16 05:29:59;;;;;;;28.17;16.92;;;;;;;5.94;98.17;97141.56;5112914;28;20400;-64
2021/11/16 05:32:24;;;;;;;26.23;16.17;;;;;;;6.17;96.83;97141.34;5108528;28;20412;-64
2021/11/16 05:34:50;;;;;;;28.23;16.90;;;;;;;6.08;97.21;97143.25;5086866;28;20401;-64
2021/11/16 05:37:15;;;;;;;26.80;16.70;;;;;;;5.98;98.34;97155.00;5093397;28;20378;-63
2021/11/16 05:39:41;;;;;;;25.30;15.77;;;;;;;6.10;98.39;97143.09;5093237;28;20402;-65
2021/11/16 05:42:06;;;;;;;26.90;16.55;;;;;;;6.02;98.64;97151.03;5109773;28;20396;-64
2021/11/16 05:44:32;;;;;;;26.40;16.23;;;;;;;6.20;97.77;97146.16;5094051;28;20397;-64
2021/11/16 05:47:00;;;;;;;25.10;15.85;;;;;;;6.13;97.01;97148.69;5093209;28;20390;-64
2021/11/16 05:49:31;;;;;;;28.27;17.10;;;;;;;6.04;98.22;97159.44;5093957;28;20736;-64
2021/11/16 05:51:56;;;;;;;27.13;16.40;;;;;;;5.88;98.74;97157.94;5094121;28;20857;-64
2021/11/16 05:54:27;;;;;;;26.92;16.98;;;;;;;6.03;98.20;97150.84;5093044;28;20406;-64
2021/11/16 05:56:53;;;;;;;26.60;16.48;;;;;;;5.97;98.85;97146.38;5091663;28;20401;-64
2021/11/16 05:59:18;;;;;;;25.00;16.13;;;;;;;5.86;98.62;97152.88;5093500;28;20418;-64
2021/11/16 06:01:43;;;;;;;27.60;16.20;;;;;;;5.90;98.09;97148.16;5098646;28;20531;-65
2021/11/16 06:04:09;;;;;;;26.47;16.20;;;;;;;5.66;99.80;97153.69;5097307;28;20400;-64
2021/11/16 06:06:37;;;;;;;24.67;16.03;;;;;;;5.73;99.73;97144.97;5112207;28;20907;-64
2021/11/16 06:09:05;;;;;;;26.23;16.50;;;;;;;6.02;97.40;97151.81;5112976;28;20407;-65
2021/11/16 06:11:31;;;;;;;26.88;16.08;;;;;;;6.01;97.04;97146.84;5094260;28;20469;-64
2021/11/16 06:13:57;;;;;;;25.73;16.10;;;;;;;5.83;98.03;97144.66;5097280;28;20398;-65
2021/11/16 06:16:22;;;;;;;25.87;16.13;;;;;;;5.75;98.37;97153.38;5093062;28;20447;-64
2021/11/16 06:18:55;;;;;;;27.57;16.10;;;;;;;5.84;98.17;97157.47;5092554;28;20409;-64
2021/11/16 06:21:22;;;;;;;25.63;15.52;;;;;;;5.76;98.17;97152.41;5097252;28;20483;-67
2021/11/16 06:23:49;;;;;;;25.43;16.20;;;;;;;5.74;98.43;97164.75;5106159;28;20876;-65
2021/11/16 06:26:15;;;;;;;24.07;15.80;;;;;;;5.89;97.42;97172.53;5112472;28;20463;-64
2021/11/16 06:28:41;;;;;;;23.17;14.23;;;;;;;6.01;95.21;97168.44;5111021;28;20388;-64
2021/11/16 06:31:09;;;;;;;21.33;13.73;;;;;;;5.95;95.51;97160.59;5111694;28;20392;-64
2021/11/16 06:33:34;;;;;;;22.85;14.13;;;;;;;5.65;96.55;97170.28;5090517;28;20907;-64
2021/11/16 06:36:00;;;;;;;20.60;13.93;;;;;;;5.76;96.68;97162.78;5100805;28;20384;-64
2021/11/16 06:38:25;;;;;;;20.00;13.18;;;;;;;5.76;96.39;97172.38;5100141;28;20493;-64
2021/11/16 06:40:51;;;;;;;18.27;13.20;;;;;;;5.67;96.15;97173.53;5090971;28;20397;-64
2021/11/16 06:43:25;;;;;;;17.47;12.37;;;;;;;5.66;95.51;97175.31;5084103;28;20437;-65
2021/11/16 06:45:52;;;;;;;16.75;12.90;;;;;;;5.74;95.95;97177.00;5089902;28;20850;-66
2021/11/16 06:48:18;;;;;;;17.85;12.75;;;;;;;5.77;95.04;97177.41;5092261;28;20591;-66
2021/11/16 06:50:44;;;;;;;17.15;12.35;;;;;;;5.90;93.75;97168.16;5090562;28;20481;-66
2021/11/16 06:53:10;;;;;;;17.08;12.43;;;;;;;5.79;94.30;97175.44;5099937;28;20470;-67
2021/11/16 06:55:35;;;;;;;15.82;11.82;;;;;;;5.74;95.17;97172.56;5101491;28;20855;-66
2021/11/16 06:58:01;;;;;;;18.17;13.03;;;;;;;5.85;93.62;97171.28;5111419;28;20389;-66
2021/11/16 07:00:26;;;;;;;15.60;11.93;;;;;;;6.07;92.91;97178.09;5105077;28;20897;-66
2021/11/16 07:02:59;;;;;;;17.02;11.82;;;;;;;6.07;92.53;97183.31;5109468;28;20880;-66
2021/11/16 07:05:28;;;;;;;15.55;11.80;;;;;;;5.94;92.51;97179.78;5109645;28;20426;-66
2021/11/16 07:07:55;;;;;;;17.40;12.13;;;;;;;5.86;93.20;97175.47;5095682;28;20404;-66
2021/11/16 07:10:25;;;;;;;16.10;12.15;;;;;;;5.87;93.33;97184.94;5093472;28;20701;-65
2021/11/16 07:12:51;;;;;;;16.90;11.93;;;;;;;5.98;92.88;97183.63;5093861;28;20398;-67
2021/11/16 07:15:18;;;;;;;15.63;11.97;;;;;;;6.02;92.03;97185.66;5093721;28;20391;-68
2021/11/16 07:17:43;;;;;;;16.48;12.65;;;;;;;5.99;91.54;97191.25;5097595;28;20414;-68
2021/11/16 07:20:10;;;;;;;18.20;12.80;;;;;;;6.17;90.29;97194.19;5091998;28;20479;-67
2021/11/16 07:22:37;;;;;;;18.67;13.13;;;;;;;5.95;90.99;97190.00;5098965;28;20418;-67
2021/11/16 07:25:13;;;;;;;18.98;12.82;;;;;;;6.15;90.30;97196.16;5109028;28;20395;-67
2021/11/16 07:27:44;;;;;;;18.48;12.68;;;;;;;6.12;90.67;97196.56;5096915;28;20425;-67
2021/11/16 07:30:13;;;;;;;16.40;11.85;;;;;;;6.24;90.10;97195.03;5091026;28;20386;-67
2021/11/16 07:32:53;;;;;;;18.48;12.40;;;;;;;6.24;89.93;97202.06;5091114;28;20398;-68
2021/11/16 07:35:25;;;;;;;16.90;12.20;;;;;;;6.22;90.13;97206.63;5099380;28;20482;-68
2021/11/16 07:37:55;;;;;;;18.17;12.18;;;;;;;6.27;90.22;97212.09;5110847;28;20689;-67
2021/11/16 07:40:21;;;;;;;16.02;12.25;;;;;;;6.07;91.88;97205.94;5109243;28;20740;-67
2021/11/16 07:42:57;;;;;;;16.38;12.63;;;;;;;6.19;91.64;97212.19;5098252;28;20402;-68
2021/11/16 07:45:27;;;;;;;16.87;12.20;;;;;;;6.33;90.54;97213.13;5104761;28;20392;-67
2021/11/16 07:48:06;;;;;;;15.50;11.60;;;;;;;6.47;89.16;97212.22;5100776;28;20762;-66
2021/11/16 07:50:32;;;;;;;17.45;12.23;;;;;;;6.41;90.44;97211.16;5113741;28;20384;-67
2021/11/16 07:53:35;;;;;;;16.77;12.20;;;;;;;6.60;88.85;97207.09;5113723;28;20469;-67
2021/11/16 07:56:05;;;;;;;16.20;11.50;;;;;;;6.50;89.09;97204.84;5094348;28;20409;-67
2021/11/16 07:58:38;;;;;;;16.50;12.30;;;;;;;6.51;88.38;97209.06;5094263;28;20731;-67
2021/11/16 08:01:20;;;;;;;17.17;12.20;;;;;;;6.50;89.63;97206.63;5095509;28;20897;-67
2021/11/16 08:03:51;;;;;;;18.38;12.57;;;;;;;6.64;89.36;97210.94;5111515;28;20453;-67
2021/11/16 08:06:26;;;;;;;17.35;11.88;;;;;;;6.75;88.84;97204.38;5093795;28;20513;-67
2021/11/16 08:09:03;;;;;;;17.08;12.20;;;;;;;6.61;89.02;97206.09;5103078;28;20911;-67
2021/11/16 08:11:33;;;;;;;17.35;12.00;;;;;;;6.74;87.96;97211.41;5112976;28;20783;-67
2021/11/16 08:14:06;;;;;;;16.77;12.40;;;;;;;6.69;87.83;97206.75;5100116;28;20418;-67
2021/11/16 08:16:34;;;;;;;17.05;12.18;;;;;;;6.77;88.34;97216.22;5093354;28;20382;-67
2021/11/16 08:19:10;;;;;;;16.67;11.70;;;;;;;6.53;88.55;97214.06;5078652;28;20478;-68
2021/11/16 08:21:43;;;;;;;16.65;11.73;;;;;;;6.83;87.24;97214.66;5100777;28;20896;-68
2021/11/16 08:24:14;;;;;;;16.95;12.48;;;;;;;6.77;87.70;97212.81;5100540;28;20496;-68
2021/11/16 08:26:47;;;;;;;17.23;11.95;;;;;;;6.73;87.37;97216.81;5079572;28;20395;-67
2021/11/16 08:29:15;;;;;;;18.00;11.32;;;;;;;6.75;87.05;97218.22;5107366;28;20411;-67
2021/11/16 08:31:52;;;;;;;17.02;11.48;;;;;;;6.71;87.06;97217.00;5111406;28;20423;-68
2021/11/16 08:34:19;;;;;;;16.75;11.75;;;;;;;6.93;85.53;97220.31;5098358;28;20602;-67
2021/11/16 08:36:49;;;;;;;16.77;11.73;;;;;;;6.76;85.87;97217.22;5101425;28;20428;-67
2021/11/16 08:39:21;;;;;;;16.55;11.32;;;;;;;6.78;86.18;97219.63;5094210;28;20747;-67
2021/11/16 08:41:47;;;;;;;17.38;11.20;;;;;;;6.73;86.40;97222.00;5091983;28;20401;-67
2021/11/16 08:44:31;;;;;;;16.40;11.45;;;;;;;6.55;86.48;97223.31;5092521;28;20425;-67
2021/11/16 08:47:08;;;;;;;17.65;11.93;;;;;;;6.75;86.14;97217.41;5094477;28;20444;-67
2021/11/16 08:49:34;;;;;;;18.63;12.75;;;;;;;6.84;85.19;97224.88;5095293;28;20398;-67
2021/11/16 08:52:03;;;;;;;19.07;12.90;;;;;;;6.72;86.37;97225.59;5092741;28;20467;-67
2021/11/16 08:54:35;;;;;;;18.75;12.80;;;;;;;6.69;86.12;97230.19;5091750;28;20493;-68
2021/11/16 08:57:03;;;;;;;20.08;13.38;;;;;;;6.78;86.29;97230.06;5095710;28;20521;-67
2021/11/16 08:59:34;;;;;;;19.75;12.88;;;;;;;6.76;86.16;97230.25;5094287;28;20414;-67
2021/11/16 09:02:03;;;;;;;18.88;12.18;;;;;;;6.49;86.52;97236.28;5092163;28;20390;-67
2021/11/16 09:04:32;;;;;;;20.58;13.07;;;;;;;6.50;86.79;97243.91;5093684;28;20394;-67
2021/11/16 09:06:59;;;;;;;19.77;12.98;;;;;;;6.54;86.97;97226.91;5101609;28;20404;-68
2021/11/16 09:09:25;;;;;;;20.63;12.90;;;;;;;6.62;86.66;97224.16;5100379;28;20396;-68
2021/11/16 09:12:05;;;;;;;19.30;12.63;;;;;;;6.65;86.60;97223.75;5092212;28;20405;-67
2021/11/16 09:14:33;;;;;;;19.00;12.73;;;;;;;6.82;85.44;97224.25;5095818;28;20390;-67
2021/11/16 09:17:11;;;;;;;19.40;12.43;;;;;;;6.84;85.48;97218.88;5112351;28;20635;-67
2021/11/16 09:19:37;;;;;;;17.92;12.75;;;;;;;6.76;85.60;97222.41;5086265;28;20410;-67
2021/11/16 09:22:03;;;;;;;19.40;12.63;;;;;;;6.65;86.00;97228.16;5094065;28;20406;-70
2021/11/16 09:24:31;;;;;;;19.50;12.38;;;;;;;6.80;85.34;97221.03;5096168;28;20389;-68
2021/11/16 09:27:09;;;;;;;18.75;12.57;;;;;;;7.10;83.63;97211.97;5103995;28;20418;-67
2021/11/16 09:29:37;;;;;;;19.98;12.63;;;;;;;7.09;83.19;97212.16;5113031;28;20388;-67
2021/11/16 09:32:07;;;;;;;18.75;11.80;;;;;;;6.99;83.76;97224.75;5078577;28;20416;-67
2021/11/16 09:34:36;;;;;;;19.02;11.65;;;;;;;6.70;85.54;97220.56;5110954;28;20399;-67
2021/11/16 09:37:13;;;;;;;20.17;12.27;;;;;;;6.84;84.87;97217.06;5099484;28;20755;-67
2021/11/16 09:39:53;;;;;;;22.70;13.32;;;;;;;6.88;85.22;97217.47;5109688;28;20419;-68
2021/11/16 09:42:31;;;;;;;20.60;12.25;;;;;;;6.80;85.58;97213.22;5094098;28;20474;-67
2021/11/16 09:45:03;;;;;;;20.08;12.02;;;;;;;7.01;84.20;97213.16;5103249;28;20390;-67
2021/11/16 09:47:41;;;;;;;20.63;12.25;;;;;;;6.76;86.01;97209.41;5092851;28;20399;-67
2021/11/16 09:50:09;;;;;;;20.45;12.35;;;;;;;6.77;86.08;97220.63;5090562;28;20748;-67
2021/11/16 09:52:40;;;;;;;20.10;12.05;;;;;;;6.74;86.09;97221.03;5094002;28;20397;-67
2021/11/16 09:55:07;;;;;;;19.63;12.05;;;;;;;6.81;85.71;97221.84;5097256;28;20446;-67
2021/11/16 09:57:36;;;;;;;20.65;11.30;;;;;;;7.17;84.45;97219.84;5094375;28;20385;-67
2021/11/16 10:00:18;;;;;;;18.40;11.27;;;;;;;7.13;83.76;97220.44;5103976;28;20502;-67
2021/11/16 10:02:49;;;;;;;15.07;9.52;;;;;;;6.91;83.79;97220.50;5100003;28;20399;-67
2021/11/16 10:05:20;;;;;;;15.00;10.07;;;;;;;6.96;83.67;97223.34;5092488;28;20413;-67
2021/11/16 10:07:50;;;;;;;14.48;9.70;;;;;;;6.92;83.84;97223.91;5092220;28;20739;-67
2021/11/16 10:10:19;;;;;;;14.95;9.50;;;;;;;6.70;84.05;97220.56;5099647;28;20392;-67
2021/11/16 10:13:02;;;;;;;15.93;9.43;;;;;;;6.84;83.86;97216.25;5088547;28;20488;-67
2021/11/16 10:15:30;;;;;;;14.90;9.23;;;;;;;6.80;83.74;97207.22;5102423;28;20388;-67
2021/11/16 10:17:56;;;;;;;13.85;9.23;;;;;;;6.85;83.81;97199.66;5110204;28;20408;-67
2021/11/16 10:20:26;;;;;;;14.50;9.10;;;;;;;7.00;82.82;97189.88;5111813;28;20384;-67
2021/11/16 10:22:53;;;;;;;14.30;9.18;;;;;;;7.12;82.71;97190.13;5112158;28;20440;-67
2021/11/16 10:25:22;;;;;;;15.43;9.52;;;;;;;7.13;82.97;97199.56;5085715;28;20421;-67
2021/11/16 10:27:49;;;;;;;13.63;9.05;;;;;;;7.00;82.98;97200.31;5092072;28;20399;-67
2021/11/16 10:30:29;;;;;;;13.43;9.10;;;;;;;6.77;84.39;97195.38;5094272;28;20878;-67
2021/11/16 10:33:13;;;;;;;15.00;9.05;;;;;;;6.61;84.71;97193.91;5090031;28;20401;-67
2021/11/16 10:35:54;;;;;;;13.82;8.63;;;;;;;6.90;84.56;97200.69;5089998;28;20406;-68
2021/11/16 10:38:23;;;;;;;14.48;9.23;;;;;;;7.01;83.94;97197.53;5094055;28;20420;-67
2021/11/16 10:40:49;;;;;;;14.73;8.95;;;;;;;6.94;84.55;97203.69;5092603;28;20447;-68
2021/11/16 10:43:15;;;;;;;15.77;9.20;;;;;;;7.02;84.57;97198.31;5095907;28;20804;-68
2021/11/16 10:45:44;;;;;;;13.85;8.93;;;;;;;6.93;84.75;97194.25;5092245;28;20761;-69
2021/11/16 10:48:13;;;;;;;13.75;8.90;;;;;;;7.07;83.52;97191.53;5100280;28;20551;-67
2021/11/16 10:50:42;;;;;;;14.15;8.48;;;;;;;6.87;83.75;97195.84;5091805;28;20874;-67
2021/11/16 10:53:14;;;;;;;12.73;7.93;;;;;;;7.12;83.41;97193.56;5090641;28;20423;-68
2021/11/16 10:55:49;;;;;;;12.98;7.80;;;;;;;6.97;82.95;97191.06;5111332;28;20722;-68
2021/11/16 10:58:20;;;;;;;12.07;7.65;;;;;;;7.31;81.87;97198.03;5102740;28;20416;-67
2021/11/16 11:00:58;;;;;;;13.35;7.82;;;;;;;7.18;81.93;97194.56;5111734;28;20446;-68
2021/11/16 11:03:28;;;;;;;13.50;7.70;;;;;;;7.20;82.04;97185.56;5090966;28;20459;-68
2021/11/16 11:06:03;;;;;;;13.88;8.63;;;;;;;7.10;83.37;97183.31;5110785;28;20412;-68
2021/11/16 11:08:32;;;;;;;15.85;9.48;;;;;;;7.09;83.97;97173.88;5072758;28;20412;-68
2021/11/16 11:10:59;;;;;;;14.20;9.73;;;;;;;6.90;85.53;97177.22;5111157;28;20395;-68
2021/11/16 11:13:26;;;;;;;17.85;11.02;;;;;;;6.85;86.59;97173.59;5108480;28;20392;-70
2021/11/16 11:15:51;;;;;;;17.38;10.60;;;;;;;7.14;84.80;97175.91;5092995;28;20802;-67
2021/11/16 11:18:38;;;;;;;18.05;9.85;;;;;;;7.00;84.62;97164.63;5096123;28;20412;-67
2021/11/16 11:21:10;;;;;;;12.77;8.35;;;;;;;7.21;83.53;97174.13;5115659;28;20407;-68
2021/11/16 11:23:36;;;;;;;13.30;8.10;;;;;;;7.06;83.70;97169.06;5110788;28;20410;-67
2021/11/16 11:29:24;;;;;;;12.25;7.88;;;;;;;7.14;82.44;97173.28;5095126;28;20380;-67
2021/11/16 11:31:56;;;;;;;15.00;8.63;;;;;;;7.05;83.21;97175.28;5104557;28;20401;-69
2021/11/16 11:34:39;;;;;;;13.98;8.05;;;;;;;7.06;83.28;97168.25;5102136;28;20393;-67
2021/11/16 11:37:17;;;;;;;13.55;8.27;;;;;;;6.95;83.52;97187.88;5095379;28;20910;-68
2021/11/16 11:39:43;;;;;;;12.10;8.30;;;;;;;6.89;83.98;97178.22;5104324;28;20896;-67
2021/11/16 11:42:12;;;;;;;14.65;8.15;;;;;;;7.02;83.59;97172.28;5104207;28;20425;-67
2021/11/16 11:44:43;;;;;;;15.07;9.00;;;;;;;6.75;85.02;97168.72;5108915;28;20756;-67
2021/11/16 11:47:08;;;;;;;16.13;9.10;;;;;;;6.94;84.74;97169.81;5115434;28;20467;-67
2021/11/16 11:49:34;;;;;;;13.88;8.82;;;;;;;6.96;84.95;97170.44;5104870;28;20404;-67